Time;durP1;ratioP1;P1;durP2;ratioP2;P2;SDS_P1;SDS_P2;PMS_P1;PMS_P2;Temp;Humidity;BMP_temperature;BMP_pressure;BME280_temperature;BME280_humidity;BME280_pressure;Samples;Min_cycle;Max_cycle;Signal;HPM_P1;HPM_P2
2022/06/26 00:01:59;;;;;;;3.23;1.90;;;21.10;99.90;;;;;;4968936;28;20194;-76
2022/06/26 00:04:26;;;;;;;4.77;2.07;;;21.00;99.90;;;;;;4951750;28;20194;-76
2022/06/26 00:06:54;;;;;;;5.23;2.30;;;21.00;99.90;;;;;;4942993;28;20207;-75
2022/06/26 00:09:21;;;;;;;4.97;2.03;;;21.00;99.90;;;;;;4950848;28;20703;-76
2022/06/26 00:11:48;;;;;;;4.40;2.00;;;21.10;99.90;;;;;;4967094;28;20222;-77
2022/06/26 00:14:14;;;;;;;3.70;2.00;;;21.10;99.90;;;;;;4966124;28;20216;-76
2022/06/26 00:16:42;;;;;;;6.27;2.40;;;21.10;99.90;;;;;;4950563;28;20240;-76
2022/06/26 00:19:08;;;;;;;4.80;2.27;;;21.00;99.90;;;;;;4966136;28;20214;-75
2022/06/26 00:21:35;;;;;;;6.17;2.10;;;21.00;99.90;;;;;;4952229;28;20179;-76
2022/06/26 00:24:02;;;;;;;5.03;1.90;;;21.10;99.90;;;;;;4951674;28;20205;-76
2022/06/26 00:26:28;;;;;;;7.03;2.30;;;21.00;99.90;;;;;;4953004;28;20202;-76
2022/06/26 00:28:55;;;;;;;4.50;2.10;;;21.00;99.90;;;;;;4966744;28;20179;-76
2022/06/26 00:31:22;;;;;;;4.90;2.10;;;20.90;99.90;;;;;;4947348;28;20319;-76
2022/06/26 00:33:49;;;;;;;5.20;2.10;;;20.90;99.90;;;;;;4953061;28;20183;-76
2022/06/26 00:36:18;;;;;;;6.67;2.20;;;20.90;99.90;;;;;;4942796;28;20183;-76
2022/06/26 00:38:45;;;;;;;6.67;2.30;;;20.90;99.90;;;;;;4965653;28;20197;-76
2022/06/26 00:41:11;;;;;;;7.07;2.10;;;20.90;99.90;;;;;;4951144;28;20274;-76
2022/06/26 00:43:38;;;;;;;6.47;2.00;;;20.90;99.90;;;;;;4940281;29;20191;-76
2022/06/26 00:46:06;;;;;;;5.90;2.07;;;20.90;99.90;;;;;;4958582;28;20222;-77
2022/06/26 00:48:33;;;;;;;3.00;1.83;;;20.90;99.90;;;;;;4935950;29;20190;-75
2022/06/26 00:51:03;;;;;;;6.03;2.43;;;20.90;99.90;;;;;;4971491;28;20209;-76
2022/06/26 00:53:30;;;;;;;5.90;2.37;;;20.90;99.90;;;;;;4966445;28;20529;-75
2022/06/26 00:55:57;;;;;;;6.73;2.20;;;20.90;99.90;;;;;;4955126;28;20198;-75
2022/06/26 00:58:23;;;;;;;9.53;2.43;;;20.80;99.90;;;;;;4966684;28;20190;-76
2022/06/26 01:00:50;;;;;;;8.53;2.47;;;20.80;99.90;;;;;;4951533;28;20189;-75
2022/06/26 01:03:17;;;;;;;8.40;2.53;;;20.80;99.90;;;;;;4953937;28;20190;-76
2022/06/26 01:05:46;;;;;;;7.13;2.10;;;20.80;99.90;;;;;;4968591;28;20660;-76
2022/06/26 01:08:13;;;;;;;7.60;2.10;;;20.80;99.90;;;;;;4947957;29;20228;-76
2022/06/26 01:10:39;;;;;;;5.43;2.10;;;20.80;99.90;;;;;;4949079;29;20183;-77
2022/06/26 01:13:07;;;;;;;5.20;2.40;;;20.80;99.90;;;;;;4967273;28;20238;-76
2022/06/26 01:15:34;;;;;;;8.03;2.10;;;20.80;99.90;;;;;;4961080;28;20191;-76
2022/06/26 01:18:01;;;;;;;6.17;2.47;;;20.80;99.90;;;;;;4936932;28;20191;-76
2022/06/26 01:20:30;;;;;;;8.10;2.10;;;20.80;99.90;;;;;;4965566;28;20258;-76
2022/06/26 01:23:09;;;;;;;9.53;2.47;;;20.80;99.90;;;;;;4952358;28;20194;-76
2022/06/26 01:25:48;;;;;;;7.53;2.37;;;20.80;99.90;;;;;;4963331;28;20603;-77
2022/06/26 01:28:16;;;;;;;6.47;2.27;;;20.80;99.90;;;;;;4949329;28;20189;-76
2022/06/26 01:30:43;;;;;;;5.00;2.47;;;20.80;99.90;;;;;;4942412;29;20182;-76
2022/06/26 01:33:09;;;;;;;4.97;2.10;;;20.80;99.90;;;;;;4938418;28;20216;-77
2022/06/26 01:35:36;;;;;;;5.40;2.30;;;20.80;99.90;;;;;;4971880;28;20218;-77
2022/06/26 01:38:21;;;;;;;7.77;2.30;;;20.70;99.90;;;;;;4954930;28;20269;-76
2022/06/26 01:40:53;;;;;;;6.10;2.30;;;20.70;99.90;;;;;;4945713;29;20645;-76
2022/06/26 01:43:27;;;;;;;3.67;2.20;;;20.70;99.90;;;;;;4938745;29;20944;-76
2022/06/26 01:45:56;;;;;;;11.00;2.50;;;20.70;99.90;;;;;;4964695;28;20636;-76
2022/06/26 01:48:26;;;;;;;8.50;2.33;;;20.70;99.90;;;;;;4941208;29;20176;-75
2022/06/26 01:50:56;;;;;;;5.87;1.87;;;20.70;99.90;;;;;;4943741;29;20191;-76
2022/06/26 01:53:23;;;;;;;9.97;2.37;;;20.70;99.90;;;;;;4966037;28;20256;-75
2022/06/26 01:55:49;;;;;;;8.37;2.20;;;20.70;99.90;;;;;;4956662;28;20183;-76
2022/06/26 01:58:16;;;;;;;5.03;2.30;;;20.70;99.90;;;;;;4974872;28;20195;-76
2022/06/26 02:00:46;;;;;;;5.30;2.10;;;20.70;99.90;;;;;;4953438;28;20282;-76
2022/06/26 02:03:16;;;;;;;4.90;2.00;;;20.60;99.90;;;;;;4942012;29;20186;-76
2022/06/26 02:05:42;;;;;;;8.37;2.67;;;20.60;99.90;;;;;;4944952;29;20210;-76
2022/06/26 02:08:10;;;;;;;4.87;2.10;;;20.50;99.90;;;;;;4951660;29;20359;-76
2022/06/26 02:13:37;;;;;;;5.77;2.20;;;20.50;99.90;;;;;;4968048;28;20570;-76
2022/06/26 02:16:28;;;;;;;7.07;2.20;;;20.50;99.90;;;;;;4944353;29;20214;-75
2022/06/26 02:18:58;;;;;;;5.03;2.00;;;20.40;99.90;;;;;;4969993;28;20190;-76
2022/06/26 02:21:28;;;;;;;6.90;2.00;;;20.40;99.90;;;;;;4978856;28;20179;-76
2022/06/26 02:23:57;;;;;;;9.37;2.50;;;20.40;99.90;;;;;;4968472;28;20183;-76
2022/06/26 02:26:24;;;;;;;5.33;2.40;;;20.40;99.90;;;;;;4937807;29;20210;-76
2022/06/26 02:28:50;;;;;;;4.77;2.13;;;20.40;99.90;;;;;;4941660;29;20286;-76
2022/06/26 02:31:18;;;;;;;5.77;2.13;;;20.50;99.90;;;;;;4935931;28;20278;-76
2022/06/26 02:33:45;;;;;;;6.17;2.40;;;20.50;99.90;;;;;;4942487;29;20183;-76
2022/06/26 02:36:11;;;;;;;6.97;2.40;;;20.40;99.90;;;;;;4945594;29;20202;-75
2022/06/26 02:38:38;;;;;;;6.33;2.43;;;20.40;99.90;;;;;;4941493;29;20215;-76
2022/06/26 02:41:05;;;;;;;6.10;2.27;;;20.40;99.90;;;;;;4971628;28;20210;-76
2022/06/26 02:43:32;;;;;;;8.47;2.20;;;20.50;99.90;;;;;;4968058;28;20185;-77
2022/06/26 02:45:58;;;;;;;7.30;2.03;;;20.40;99.90;;;;;;4968962;28;20191;-76
2022/06/26 02:48:26;;;;;;;8.63;2.20;;;20.40;99.90;;;;;;4970208;28;20222;-75
2022/06/26 02:50:52;;;;;;;8.97;2.73;;;20.40;99.90;;;;;;4970352;28;20175;-76
2022/06/26 02:53:18;;;;;;;5.27;2.07;;;20.50;99.90;;;;;;4948303;29;20243;-75
2022/06/26 02:55:45;;;;;;;7.60;2.40;;;20.70;99.90;;;;;;4966737;28;20274;-75
2022/06/26 02:58:12;;;;;;;4.00;1.90;;;20.70;99.90;;;;;;4953936;28;20186;-75
2022/06/26 03:00:39;;;;;;;5.80;2.10;;;20.70;99.90;;;;;;4958413;28;20262;-76
2022/06/26 03:03:09;;;;;;;5.70;2.17;;;20.70;99.90;;;;;;4934133;28;20293;-76
2022/06/26 03:05:35;;;;;;;5.97;2.00;;;20.70;99.90;;;;;;4951477;28;20944;-75
2022/06/26 03:08:02;;;;;;;6.10;2.00;;;20.70;99.90;;;;;;4949265;28;20194;-76
2022/06/26 03:10:28;;;;;;;5.73;1.77;;;20.70;99.90;;;;;;4951518;29;20234;-76
2022/06/26 03:12:54;;;;;;;4.83;1.70;;;20.60;99.90;;;;;;4966778;28;20658;-76
2022/06/26 03:15:21;;;;;;;3.90;2.13;;;20.70;99.90;;;;;;4968766;28;20287;-75
2022/06/26 03:17:49;;;;;;;2.23;1.60;;;20.70;99.90;;;;;;4936639;28;20706;-75
2022/06/26 03:20:19;;;;;;;2.10;1.50;;;20.70;99.90;;;;;;4972029;28;20205;-75
2022/06/26 03:22:50;;;;;;;2.63;1.70;;;20.60;99.90;;;;;;4966862;28;20198;-75
2022/06/26 03:25:16;;;;;;;3.73;2.00;;;20.60;99.90;;;;;;4949441;28;20203;-76
2022/06/26 03:27:43;;;;;;;3.93;1.90;;;20.60;99.90;;;;;;4962636;28;20652;-76
2022/06/26 03:30:12;;;;;;;4.57;1.70;;;20.60;99.90;;;;;;4945582;28;20888;-75
2022/06/26 03:32:38;;;;;;;4.37;1.67;;;20.50;99.90;;;;;;4970300;28;20187;-77
2022/06/26 03:35:06;;;;;;;3.80;1.70;;;20.50;99.90;;;;;;4940651;28;20627;-76
2022/06/26 03:37:33;;;;;;;5.33;1.90;;;20.40;99.90;;;;;;4952322;28;20611;-76
2022/06/26 03:39:59;;;;;;;7.27;1.70;;;20.40;99.90;;;;;;4949063;29;20203;-76
2022/06/26 03:42:26;;;;;;;5.53;1.63;;;20.50;99.90;;;;;;4951400;28;20221;-75
2022/06/26 03:44:52;;;;;;;7.93;1.80;;;20.50;99.90;;;;;;4968436;28;20193;-76
2022/06/26 03:47:19;;;;;;;3.30;1.70;;;20.50;99.90;;;;;;4951370;28;20297;-75
2022/06/26 03:49:45;;;;;;;4.60;1.73;;;20.50;99.90;;;;;;4942484;29;20218;-76
2022/06/26 03:52:11;;;;;;;5.37;2.10;;;20.40;99.90;;;;;;4969840;28;20257;-76
2022/06/26 03:54:38;;;;;;;3.43;1.83;;;20.40;99.90;;;;;;4951088;29;20199;-76
2022/06/26 03:57:05;;;;;;;5.23;2.37;;;20.40;99.90;;;;;;4937005;29;20655;-76
2022/06/26 03:59:33;;;;;;;5.90;2.00;;;20.50;99.90;;;;;;4934460;29;20202;-76
2022/06/26 04:01:59;;;;;;;4.20;1.97;;;20.50;99.90;;;;;;4938330;28;20254;-76
2022/06/26 04:04:25;;;;;;;4.30;2.00;;;20.60;99.90;;;;;;4966595;28;20195;-76
2022/06/26 04:06:52;;;;;;;6.43;1.90;;;20.60;99.90;;;;;;4967231;28;20222;-76
2022/06/26 04:09:19;;;;;;;6.63;2.37;;;20.60;99.90;;;;;;4946996;28;20190;-76
2022/06/26 04:11:48;;;;;;;5.57;2.33;;;20.70;99.90;;;;;;4966497;28;20214;-76
2022/06/26 04:14:14;;;;;;;5.73;2.43;;;20.70;99.90;;;;;;4962862;28;20651;-76
2022/06/26 04:16:43;;;;;;;5.40;2.30;;;20.80;99.90;;;;;;4963074;28;20245;-76
2022/06/26 04:19:10;;;;;;;7.37;2.47;;;20.80;99.90;;;;;;4939485;29;20183;-76
2022/06/26 04:21:37;;;;;;;3.13;1.80;;;20.90;99.90;;;;;;4969196;28;20191;-76
2022/06/26 04:24:03;;;;;;;8.97;2.40;;;20.90;99.90;;;;;;4944067;28;20222;-75
2022/06/26 04:26:33;;;;;;;3.67;1.83;;;21.00;99.90;;;;;;4967804;28;20215;-76
2022/06/26 04:28:59;;;;;;;4.63;2.33;;;21.00;99.90;;;;;;4951121;28;20642;-76
2022/06/26 04:31:25;;;;;;;4.23;2.30;;;21.10;99.90;;;;;;4951352;28;20516;-76
2022/06/26 04:33:51;;;;;;;4.50;2.20;;;21.10;99.90;;;;;;4965408;28;20187;-75
2022/06/26 04:36:18;;;;;;;5.50;2.33;;;21.20;99.90;;;;;;4951025;28;20195;-75
2022/06/26 04:38:44;;;;;;;8.27;2.53;;;21.20;99.90;;;;;;4966493;28;20201;-76
2022/06/26 04:43:56;;;;;;;4.57;2.10;;;21.40;99.90;;;;;;4966083;28;20197;-75
2022/06/26 04:46:23;;;;;;;8.33;2.30;;;21.50;99.90;;;;;;4949376;28;20286;-75
2022/06/26 04:48:51;;;;;;;6.57;2.20;;;21.50;99.90;;;;;;4954775;28;20217;-76
2022/06/26 04:51:17;;;;;;;5.33;2.50;;;21.60;99.90;;;;;;4965459;28;20195;-76
2022/06/26 04:53:45;;;;;;;5.17;2.50;;;21.60;99.90;;;;;;4954139;28;20187;-76
2022/06/26 04:56:12;;;;;;;8.53;2.57;;;21.70;99.90;;;;;;4945725;28;20249;-76
2022/06/26 04:58:38;;;;;;;7.33;2.20;;;21.80;99.90;;;;;;4950474;28;20178;-76
2022/06/26 05:01:05;;;;;;;11.57;2.53;;;21.90;99.90;;;;;;4948573;28;20257;-75
2022/06/26 05:03:31;;;;;;;4.97;2.47;;;21.90;99.90;;;;;;4949391;28;20191;-75
2022/06/26 05:05:58;;;;;;;8.47;2.30;;;22.10;99.90;;;;;;4969648;28;20203;-75
2022/06/26 05:08:25;;;;;;;6.93;2.70;;;22.10;99.90;;;;;;4968934;28;20186;-76
2022/06/26 05:10:51;;;;;;;5.47;2.30;;;22.20;99.90;;;;;;4948888;28;20615;-77
2022/06/26 05:13:20;;;;;;;7.00;2.40;;;22.30;99.90;;;;;;4931922;29;20543;-74
2022/06/26 05:15:48;;;;;;;6.37;2.03;;;22.30;99.90;;;;;;4973222;28;20246;-75
2022/06/26 05:18:15;;;;;;;4.73;2.30;;;22.50;99.90;;;;;;4965956;28;20183;-75
2022/06/26 05:20:41;;;;;;;4.47;2.10;;;22.60;99.90;;;;;;4949116;28;20225;-75
2022/06/26 05:23:09;;;;;;;4.83;2.17;;;22.80;99.90;;;;;;4946851;28;20202;-75
2022/06/26 05:25:35;;;;;;;5.13;2.20;;;22.80;99.90;;;;;;4949369;28;20731;-75
2022/06/26 05:28:03;;;;;;;3.53;2.07;;;22.90;99.90;;;;;;4951922;28;20242;-75
2022/06/26 05:30:30;;;;;;;7.60;2.53;;;23.00;99.90;;;;;;4956628;28;20187;-75
2022/06/26 05:32:57;;;;;;;8.40;2.47;;;23.00;99.90;;;;;;4952423;28;20190;-76
2022/06/26 05:35:23;;;;;;;5.60;2.10;;;23.10;99.90;;;;;;4940353;28;20666;-75
2022/06/26 05:37:50;;;;;;;3.20;2.20;;;23.20;99.90;;;;;;4940055;29;20191;-76
2022/06/26 05:40:16;;;;;;;5.10;2.37;;;23.20;99.90;;;;;;4970048;28;20278;-75
2022/06/26 05:42:43;;;;;;;3.80;2.30;;;23.30;99.90;;;;;;4967065;28;20624;-75
2022/06/26 05:45:10;;;;;;;3.28;2.10;;;23.40;99.90;;;;;;4969176;28;20628;-75
2022/06/26 05:47:36;;;;;;;3.85;2.13;;;23.50;99.90;;;;;;4969358;28;20293;-74
2022/06/26 05:50:04;;;;;;;3.47;1.98;;;23.50;99.90;;;;;;4950477;28;20210;-75
2022/06/26 05:52:32;;;;;;;3.90;1.92;;;23.50;99.90;;;;;;4956149;28;20265;-75
2022/06/26 05:54:58;;;;;;;6.10;2.10;;;23.70;99.90;;;;;;4966699;28;20266;-75
2022/06/26 05:57:25;;;;;;;3.45;1.95;;;23.80;99.90;;;;;;4933386;29;20722;-75
2022/06/26 05:59:52;;;;;;;5.20;1.73;;;23.90;99.90;;;;;;4964226;28;20249;-75
2022/06/26 06:02:19;;;;;;;6.80;2.20;;;23.90;99.90;;;;;;4952778;28;20202;-76
2022/06/26 06:04:47;;;;;;;2.65;1.70;;;24.00;99.90;;;;;;4966811;28;20195;-75
2022/06/26 06:07:14;;;;;;;9.75;2.20;;;24.00;99.90;;;;;;4957857;28;20848;-75
2022/06/26 06:09:40;;;;;;;2.80;1.90;;;24.10;99.90;;;;;;4970616;28;20280;-75
2022/06/26 06:12:07;;;;;;;2.50;2.00;;;24.20;99.90;;;;;;4945035;29;20251;-75
2022/06/26 06:14:34;;;;;;;5.93;2.05;;;24.20;99.90;;;;;;4964693;28;20219;-75
2022/06/26 06:17:35;;;;;;;6.90;1.88;;;24.30;99.90;;;;;;4952213;29;20222;-75
2022/06/26 06:19:47;;;;;;;6.50;2.13;;;24.30;99.90;;;;;;4968539;28;20187;-75
2022/06/26 06:22:16;;;;;;;2.97;1.90;;;24.30;99.90;;;;;;4968006;28;20210;-75
2022/06/26 06:24:43;;;;;;;3.67;2.22;;;24.40;99.90;;;;;;4951194;29;20195;-76
2022/06/26 06:27:09;;;;;;;2.63;1.88;;;24.50;99.90;;;;;;4950640;28;20202;-74
2022/06/26 06:29:37;;;;;;;4.15;2.00;;;24.50;99.90;;;;;;4970305;28;20198;-75
2022/06/26 06:32:04;;;;;;;5.25;2.17;;;24.70;99.90;;;;;;4962659;28;20194;-76
2022/06/26 06:34:31;;;;;;;5.95;1.80;;;24.70;99.90;;;;;;4931013;28;20190;-75
2022/06/26 06:36:57;;;;;;;3.75;1.95;;;24.80;99.90;;;;;;4945918;28;20356;-75
2022/06/26 06:39:28;;;;;;;3.90;1.98;;;24.90;99.90;;;;;;4919909;29;20198;-75
2022/06/26 06:41:55;;;;;;;3.65;1.90;;;24.90;99.90;;;;;;4947076;28;20194;-76
2022/06/26 06:44:22;;;;;;;3.08;1.98;;;25.00;99.90;;;;;;4967452;28;20191;-76
2022/06/26 06:46:49;;;;;;;5.53;2.22;;;25.10;99.90;;;;;;4953035;28;20199;-76
2022/06/26 06:49:17;;;;;;;8.07;2.30;;;25.10;99.90;;;;;;4939138;28;20706;-76
2022/06/26 06:51:43;;;;;;;4.05;2.10;;;25.20;99.90;;;;;;4964746;28;20191;-75
2022/06/26 06:54:10;;;;;;;4.20;1.80;;;25.30;99.90;;;;;;4937475;28;20703;-76
2022/06/26 06:56:36;;;;;;;2.58;1.98;;;25.40;99.90;;;;;;4951077;28;20195;-76
2022/06/26 06:59:03;;;;;;;5.70;2.17;;;25.40;99.90;;;;;;4957995;28;20274;-76
2022/06/26 07:01:30;;;;;;;2.80;2.10;;;25.40;99.90;;;;;;4951935;28;20190;-76
2022/06/26 07:03:56;;;;;;;7.80;2.35;;;25.40;99.90;;;;;;4949551;28;20202;-76
2022/06/26 07:06:24;;;;;;;5.47;2.20;;;25.40;99.90;;;;;;4955693;28;20207;-76
2022/06/26 07:08:52;;;;;;;4.57;1.88;;;25.50;99.90;;;;;;4964561;28;20565;-75
2022/06/26 07:11:19;;;;;;;2.00;1.73;;;25.60;99.90;;;;;;4970336;28;20671;-75
2022/06/26 07:13:46;;;;;;;3.13;1.98;;;25.70;99.90;;;;;;4955463;28;20305;-75
2022/06/26 07:16:12;;;;;;;3.58;2.08;;;25.70;99.90;;;;;;4967562;28;20273;-75
2022/06/26 07:18:39;;;;;;;4.07;2.10;;;25.80;99.90;;;;;;4966336;28;20651;-75
2022/06/26 07:21:07;;;;;;;5.32;2.22;;;25.90;99.90;;;;;;4960843;28;20799;-75
2022/06/26 07:23:33;;;;;;;4.53;2.47;;;25.90;99.90;;;;;;4952232;28;20251;-75
2022/06/26 07:26:00;;;;;;;4.65;2.00;;;25.90;99.90;;;;;;4954502;28;20778;-76
2022/06/26 07:28:27;;;;;;;5.45;2.13;;;26.00;99.90;;;;;;4955558;28;20515;-76
2022/06/26 07:30:54;;;;;;;4.20;1.90;;;26.10;99.90;;;;;;4940383;28;20191;-75
2022/06/26 07:36:06;;;;;;;10.50;2.00;;;26.20;99.90;;;;;;4948335;28;21902;-75
2022/06/26 07:38:32;;;;;;;3.38;1.83;;;26.20;99.40;;;;;;4962705;28;20364;-75
2022/06/26 07:40:58;;;;;;;6.43;1.88;;;26.30;99.90;;;;;;4972729;28;20270;-75
2022/06/26 07:43:26;;;;;;;2.78;1.95;;;26.40;98.60;;;;;;4966837;28;20206;-75
2022/06/26 07:45:52;;;;;;;7.38;1.88;;;26.40;99.60;;;;;;4957880;28;20207;-75
2022/06/26 07:48:19;;;;;;;6.57;2.00;;;26.50;99.90;;;;;;4971961;28;20209;-75
2022/06/26 07:50:47;;;;;;;3.17;1.67;;;26.60;99.40;;;;;;4939797;28;20603;-75
2022/06/26 07:53:14;;;;;;;6.28;2.10;;;26.70;98.70;;;;;;4950220;28;20203;-76
2022/06/26 07:55:41;;;;;;;4.55;2.10;;;26.70;98.40;;;;;;4939021;28;20199;-75
2022/06/26 07:58:08;;;;;;;2.70;1.80;;;26.70;98.90;;;;;;4958434;28;20179;-76
2022/06/26 08:00:35;;;;;;;5.78;1.95;;;26.80;98.00;;;;;;4957579;28;20195;-75
2022/06/26 08:03:15;;;;;;;5.93;2.08;;;26.80;98.60;;;;;;4945804;28;20215;-76
2022/06/26 08:05:49;;;;;;;4.55;1.85;;;26.90;98.50;;;;;;4944356;28;20226;-75
2022/06/26 08:08:16;;;;;;;4.13;1.88;;;27.00;97.00;;;;;;4949745;28;20191;-75
2022/06/26 08:10:43;;;;;;;6.53;2.10;;;27.00;97.30;;;;;;4934096;29;20179;-75
2022/06/26 08:13:10;;;;;;;3.10;1.92;;;27.10;98.20;;;;;;4945251;29;20210;-75
2022/06/26 08:15:37;;;;;;;5.00;2.10;;;27.10;96.40;;;;;;4940536;28;20196;-75
2022/06/26 08:18:04;;;;;;;4.90;1.80;;;27.20;97.20;;;;;;4947708;29;20599;-75
2022/06/26 08:20:33;;;;;;;5.75;2.50;;;27.30;96.80;;;;;;4949136;28;20288;-75
2022/06/26 08:23:04;;;;;;;6.07;2.00;;;27.30;98.10;;;;;;4952668;28;20287;-76
2022/06/26 08:25:32;;;;;;;7.55;1.92;;;27.40;96.60;;;;;;4983594;28;20677;-75
2022/06/26 08:27:59;;;;;;;6.38;2.20;;;27.50;95.60;;;;;;4941497;29;20253;-75
2022/06/26 08:30:27;;;;;;;4.50;1.85;;;27.60;96.80;;;;;;4957041;28;20567;-75
2022/06/26 08:32:58;;;;;;;3.22;1.90;;;27.60;96.20;;;;;;4968453;28;20195;-76
2022/06/26 08:35:27;;;;;;;7.35;1.80;;;27.60;96.10;;;;;;4970518;28;20199;-75
2022/06/26 08:37:57;;;;;;;7.53;2.15;;;27.80;96.80;;;;;;4928492;28;20194;-76
2022/06/26 08:40:25;;;;;;;6.63;1.98;;;27.80;96.80;;;;;;4958679;28;20508;-76
2022/06/26 08:42:53;;;;;;;4.25;1.70;;;27.90;94.30;;;;;;4957773;28;20175;-75
2022/06/26 08:45:23;;;;;;;6.35;2.25;;;28.00;95.10;;;;;;4950038;28;20650;-75
2022/06/26 08:47:52;;;;;;;7.72;1.80;;;28.00;95.20;;;;;;4944544;28;20197;-75
2022/06/26 08:50:23;;;;;;;3.25;1.70;;;28.10;95.80;;;;;;4978695;28;20269;-76
2022/06/26 08:52:52;;;;;;;8.63;2.10;;;28.20;95.90;;;;;;4976806;28;20178;-77
2022/06/26 08:55:23;;;;;;;4.90;1.80;;;28.30;95.70;;;;;;4962614;28;20245;-75
2022/06/26 08:57:50;;;;;;;5.63;1.80;;;28.30;95.00;;;;;;4949943;28;20225;-76
2022/06/26 09:00:18;;;;;;;2.97;1.75;;;28.40;94.70;;;;;;4954559;28;20194;-76
2022/06/26 09:02:46;;;;;;;5.43;1.98;;;28.50;95.40;;;;;;4953026;28;20197;-72
2022/06/26 09:05:13;;;;;;;5.00;1.85;;;28.50;93.00;;;;;;4953909;28;20182;-74
2022/06/26 09:07:54;;;;;;;2.88;1.85;;;28.70;94.30;;;;;;4956864;28;20196;-74
2022/06/26 09:10:21;;;;;;;2.80;1.70;;;28.60;94.30;;;;;;4942346;29;20714;-75
2022/06/26 09:12:56;;;;;;;5.35;1.77;;;28.70;94.00;;;;;;4943714;28;20294;-74
2022/06/26 09:15:25;;;;;;;4.18;2.13;;;28.80;93.30;;;;;;4953904;28;20186;-74
2022/06/26 09:18:01;;;;;;;7.70;1.60;;;28.70;94.10;;;;;;4959234;28;20232;-74
2022/06/26 09:20:31;;;;;;;3.08;1.52;;;28.70;92.80;;;;;;4970230;28;20237;-75
2022/06/26 09:23:00;;;;;;;4.10;1.58;;;28.80;90.70;;;;;;4955431;28;20186;-75
2022/06/26 09:25:45;;;;;;;2.70;1.40;;;28.80;90.90;;;;;;4932116;29;20187;-74
2022/06/26 09:28:18;;;;;;;2.50;1.77;;;28.90;91.00;;;;;;4960641;28;20186;-75
2022/06/26 09:30:56;;;;;;;4.05;1.70;;;28.90;92.00;;;;;;4952935;28;20225;-76
2022/06/26 09:33:35;;;;;;;4.35;1.50;;;29.10;91.00;;;;;;4932030;29;20277;-76
2022/06/26 09:36:04;;;;;;;2.63;1.60;;;29.10;90.20;;;;;;4962495;28;20539;-75
2022/06/26 09:38:36;;;;;;;6.50;1.63;;;29.30;90.80;;;;;;4947094;28;20221;-75
2022/06/26 09:41:08;;;;;;;4.95;1.60;;;29.50;90.90;;;;;;4950336;28;20219;-76
2022/06/26 09:43:42;;;;;;;7.00;1.80;;;29.70;90.70;;;;;;4947835;28;20199;-76
2022/06/26 09:46:14;;;;;;;4.30;1.65;;;29.70;90.70;;;;;;4947686;28;20230;-77
2022/06/26 09:48:42;;;;;;;5.80;1.65;;;29.60;90.70;;;;;;4955152;28;20187;-76
2022/06/26 09:51:12;;;;;;;3.80;1.58;;;29.70;90.90;;;;;;4956371;28;20197;-76
2022/06/26 09:53:40;;;;;;;3.75;1.60;;;29.80;91.20;;;;;;4961866;28;20587;-75
2022/06/26 09:56:07;;;;;;;2.72;1.77;;;29.90;90.90;;;;;;4950383;28;20194;-76
2022/06/26 09:58:33;;;;;;;8.10;1.70;;;30.00;90.90;;;;;;4939929;28;20887;-76
2022/06/26 10:06:36;;;;;;;4.75;1.60;;;30.30;87.80;;;;;;4951946;28;20247;-77
2022/06/26 10:09:08;;;;;;;3.78;1.55;;;30.20;88.60;;;;;;4930244;28;20210;-76
2022/06/26 10:11:39;;;;;;;3.15;1.40;;;30.30;86.10;;;;;;4934223;29;20294;-77
2022/06/26 10:14:13;;;;;;;2.17;1.35;;;30.20;87.60;;;;;;4957138;28;20265;-76
2022/06/26 10:17:33;;;;;;;5.63;1.65;;;30.20;87.70;;;;;;4944103;28;20314;-77
2022/06/26 10:20:09;;;;;;;2.28;1.50;;;30.30;87.00;;;;;;4955599;28;20809;-77
2022/06/26 10:22:44;;;;;;;2.63;1.48;;;30.40;86.20;;;;;;4919133;29;20206;-77
2022/06/26 10:25:25;;;;;;;2.22;1.30;;;30.50;85.40;;;;;;4936951;28;20216;-76
2022/06/26 10:27:52;;;;;;;2.00;1.35;;;30.50;85.00;;;;;;4940351;28;20191;-75
2022/06/26 10:30:26;;;;;;;4.18;1.40;;;30.40;84.30;;;;;;4939004;28;20195;-77
2022/06/26 10:33:20;;;;;;;1.60;1.30;;;30.40;83.10;;;;;;4930096;29;20190;-76
2022/06/26 10:35:54;;;;;;;2.75;1.60;;;30.30;84.70;;;;;;4936580;29;20532;-76
2022/06/26 10:38:24;;;;;;;2.80;1.40;;;30.20;84.00;;;;;;4960469;28;20285;-76
2022/06/26 10:44:04;;;;;;;2.72;1.70;;;30.10;85.40;;;;;;4933995;28;20195;-76
2022/06/26 10:46:58;;;;;;;4.18;1.52;;;30.20;86.90;;;;;;4944814;28;20203;-76
2022/06/26 10:49:24;;;;;;;4.20;1.60;;;30.20;87.50;;;;;;4943356;28;20246;-76
2022/06/26 10:51:51;;;;;;;4.88;1.58;;;30.30;87.50;;;;;;4951102;28;20207;-77
2022/06/26 10:54:29;;;;;;;6.45;1.77;;;30.40;87.20;;;;;;4931372;29;20195;-76
2022/06/26 10:57:09;;;;;;;2.25;1.60;;;30.40;87.40;;;;;;4933584;28;20198;-75
2022/06/26 10:59:41;;;;;;;2.97;1.67;;;30.30;87.80;;;;;;4967720;28;20294;-77
2022/06/26 11:02:11;;;;;;;7.85;1.60;;;30.30;87.50;;;;;;4953466;28;20199;-74
2022/06/26 11:04:51;;;;;;;2.95;1.63;;;30.20;88.10;;;;;;4948604;28;20194;-73
2022/06/26 11:07:18;;;;;;;5.40;1.70;;;30.10;88.20;;;;;;4930638;29;20226;-73
2022/06/26 11:09:45;;;;;;;3.30;1.40;;;29.90;85.20;;;;;;4961438;28;20529;-73
2022/06/26 11:12:14;;;;;;;3.67;1.80;;;29.90;85.60;;;;;;4962840;28;20288;-73
2022/06/26 11:14:41;;;;;;;4.35;1.60;;;29.80;87.50;;;;;;4957477;28;20194;-72
2022/06/26 11:17:07;;;;;;;4.47;1.60;;;29.80;86.50;;;;;;4942119;28;20206;-74
2022/06/26 11:22:28;;;;;;;2.35;1.58;;;29.80;86.40;;;;;;4953114;28;20199;-73
2022/06/26 11:24:57;;;;;;;3.40;1.75;;;29.90;83.40;;;;;;4944651;28;20334;-72
2022/06/26 11:27:29;;;;;;;3.78;1.73;;;29.70;84.90;;;;;;4964465;28;20312;-73
2022/06/26 11:29:55;;;;;;;4.45;1.73;;;29.70;86.40;;;;;;4957620;28;20199;-73
2022/06/26 11:32:24;;;;;;;3.78;1.40;;;29.80;86.60;;;;;;4926171;29;20209;-72
2022/06/26 11:34:56;;;;;;;3.67;1.52;;;29.80;85.10;;;;;;4927770;28;20221;-72
2022/06/26 11:37:36;;;;;;;1.85;1.40;;;29.80;84.40;;;;;;4946971;28;20195;-73
2022/06/26 11:40:17;;;;;;;1.98;1.35;;;29.70;83.90;;;;;;4953211;28;20277;-73
2022/06/26 11:42:44;;;;;;;5.93;1.60;;;29.70;83.00;;;;;;4967977;28;20616;-72
2022/06/26 11:45:21;;;;;;;2.53;1.17;;;29.70;83.90;;;;;;4945455;28;20743;-72
2022/06/26 11:47:48;;;;;;;3.15;1.50;;;29.70;82.30;;;;;;4940537;28;20257;-72
2022/06/26 11:50:26;;;;;;;3.00;1.50;;;29.70;83.40;;;;;;4944019;28;20607;-73
2022/06/26 11:52:55;;;;;;;3.08;1.60;;;29.60;82.40;;;;;;4938184;28;20711;-73
2022/06/26 11:55:21;;;;;;;2.25;1.23;;;29.80;82.90;;;;;;4957700;28;20200;-73
2022/06/26 11:57:48;;;;;;;3.28;1.42;;;29.70;81.20;;;;;;4945370;28;20214;-74
2022/06/26 12:00:18;;;;;;;3.63;1.55;;;29.70;82.20;;;;;;4955091;28;20597;-73
2022/06/26 12:02:48;;;;;;;2.88;1.30;;;29.70;81.40;;;;;;4962093;28;20621;-73
2022/06/26 12:05:33;;;;;;;1.40;1.27;;;29.70;82.20;;;;;;4944704;28;20568;-73
2022/06/26 12:08:00;;;;;;;2.30;1.27;;;29.70;81.00;;;;;;4936057;28;20229;-73
2022/06/26 12:10:36;;;;;;;3.33;1.60;;;29.70;81.70;;;;;;4960194;28;20222;-73
2022/06/26 12:13:04;;;;;;;1.40;1.20;;;29.60;81.80;;;;;;4943313;28;20225;-73
2022/06/26 12:15:34;;;;;;;5.75;1.35;;;29.60;83.10;;;;;;4945386;29;20199;-74
2022/06/26 12:18:04;;;;;;;1.90;1.40;;;29.60;82.00;;;;;;4960303;28;20195;-74
2022/06/26 12:20:40;;;;;;;1.77;1.60;;;29.50;82.90;;;;;;4961369;28;20230;-74
2022/06/26 12:23:10;;;;;;;4.18;1.30;;;29.50;83.10;;;;;;4949500;28;20289;-72
2022/06/26 12:25:47;;;;;;;4.72;1.27;;;29.40;82.50;;;;;;4948722;28;20242;-74
2022/06/26 12:28:28;;;;;;;4.45;1.38;;;29.40;82.20;;;;;;4952381;28;20187;-73
2022/06/26 12:30:54;;;;;;;2.75;1.40;;;29.50;81.80;;;;;;4965488;28;20999;-73
2022/06/26 12:33:20;;;;;;;4.88;1.30;;;29.50;81.20;;;;;;4947242;28;20265;-75
2022/06/26 12:35:47;;;;;;;2.78;1.50;;;29.50;80.20;;;;;;4955690;28;20662;-73
2022/06/26 12:38:21;;;;;;;2.13;1.40;;;29.50;80.90;;;;;;4962999;28;20222;-74
2022/06/26 12:40:47;;;;;;;1.77;1.35;;;29.40;80.20;;;;;;4932037;29;20198;-74
2022/06/26 12:43:15;;;;;;;2.10;1.52;;;29.40;80.10;;;;;;4962310;28;20317;-73
2022/06/26 12:45:41;;;;;;;3.80;1.20;;;29.40;80.10;;;;;;4943384;28;20219;-74
2022/06/26 12:48:09;;;;;;;4.15;1.30;;;29.40;80.60;;;;;;4942944;28;20198;-74
2022/06/26 12:50:36;;;;;;;1.80;1.40;;;29.40;80.70;;;;;;4945766;28;20183;-74
2022/06/26 12:53:03;;;;;;;3.78;1.40;;;29.30;80.90;;;;;;4928757;28;20191;-74
2022/06/26 12:55:29;;;;;;;3.55;1.20;;;29.30;81.40;;;;;;4948704;28;20209;-74
2022/06/26 12:57:55;;;;;;;3.10;1.23;;;29.30;81.10;;;;;;4939115;28;20891;-73
2022/06/26 13:00:22;;;;;;;3.55;1.58;;;29.40;80.10;;;;;;4958624;28;20190;-74
2022/06/26 13:02:48;;;;;;;4.22;1.35;;;29.30;81.10;;;;;;4945435;28;20270;-74
2022/06/26 13:05:14;;;;;;;4.40;1.52;;;29.30;82.20;;;;;;4943735;29;20191;-74
2022/06/26 13:07:42;;;;;;;2.08;1.30;;;29.30;81.00;;;;;;4931177;28;20206;-74
2022/06/26 13:10:09;;;;;;;1.90;1.58;;;29.30;80.70;;;;;;4940808;28;20202;-74
2022/06/26 13:12:35;;;;;;;1.88;1.20;;;29.20;81.60;;;;;;4943587;28;21072;-74
2022/06/26 13:15:02;;;;;;;4.80;1.52;;;29.20;82.90;;;;;;4954892;28;20203;-73